createdAt,value
2023-05-14T00:00:33.582Z,94.05
2023-05-14T00:03:03.822Z,94.13
2023-05-14T00:05:33.974Z,94.50
2023-05-14T00:08:03.981Z,94.93
2023-05-14T00:10:34.163Z,94.95
2023-05-14T00:13:04.342Z,94.56
2023-05-14T00:15:34.688Z,94.72
2023-05-14T00:18:05.064Z,94.54
2023-05-14T00:20:36.217Z,94.38
2023-05-14T00:23:06.306Z,94.23
2023-05-14T00:25:36.993Z,95.87
2023-05-14T00:28:07.280Z,95.21
2023-05-14T00:30:37.374Z,95.27
2023-05-14T00:33:08.479Z,94.34
2023-05-14T00:35:57.985Z,94.46
2023-05-14T00:38:30.506Z,94.90
2023-05-14T00:41:00.603Z,95.82
2023-05-14T00:43:30.659Z,96.07
2023-05-14T00:46:01.092Z,95.82
2023-05-14T00:48:31.549Z,95.63
2023-05-14T00:51:01.728Z,96.06
2023-05-14T00:53:32.259Z,95.41
2023-05-14T00:56:02.296Z,95.42
2023-05-14T00:58:32.293Z,95.36
2023-05-14T01:01:02.464Z,95.23
2023-05-14T01:03:36.159Z,95.31
2023-05-14T01:06:20.051Z,95.36
2023-05-14T01:08:59.114Z,95.39
2023-05-14T01:11:38.173Z,95.99
2023-05-14T01:14:17.776Z,95.79
2023-05-14T01:16:49.430Z,95.95
2023-05-14T01:19:39.553Z,96.49
2023-05-14T01:22:09.653Z,96.35
2023-05-14T01:24:40.195Z,96.17
2023-05-14T01:27:15.067Z,97.21
2023-05-14T01:29:54.454Z,96.62
2023-05-14T01:32:26.581Z,97.18
2023-05-14T01:34:59.958Z,97.30
2023-05-14T01:37:32.678Z,97.36
2023-05-14T01:40:04.067Z,97.37
2023-05-14T01:42:34.617Z,97.00
2023-05-14T01:45:05.147Z,98.11
2023-05-14T01:47:35.272Z,98.34
2023-05-14T01:50:05.729Z,98.02
2023-05-14T01:52:36.943Z,98.36
2023-05-14T01:55:08.201Z,98.04
2023-05-14T01:57:38.634Z,97.97
2023-05-14T02:00:09.522Z,97.77
2023-05-14T02:02:45.210Z,97.71
2023-05-14T02:05:15.737Z,97.84
2023-05-14T02:07:45.773Z,97.75
2023-05-14T02:10:16.369Z,97.97
2023-05-14T02:12:51.025Z,98.01
2023-05-14T02:15:21.369Z,98.05
2023-05-14T02:17:51.472Z,98.51
2023-05-14T02:20:21.931Z,98.37
2023-05-14T02:23:11.453Z,98.18
2023-05-14T02:25:41.687Z,98.17
2023-05-14T02:28:11.805Z,98.15
2023-05-14T02:30:41.968Z,97.95
2023-05-14T02:33:11.783Z,97.64
2023-05-14T02:35:41.845Z,98.18
2023-05-14T02:38:11.772Z,98.24
2023-05-14T02:40:41.707Z,98.33
2023-05-14T02:43:11.588Z,98.37
2023-05-14T02:45:41.440Z,98.37
2023-05-14T02:48:11.531Z,98.67
2023-05-14T02:50:42.046Z,98.55
2023-05-14T02:53:12.658Z,98.76
2023-05-14T02:55:42.523Z,98.42
2023-05-14T02:58:12.259Z,98.69
2023-05-14T03:00:42.444Z,98.65
2023-05-14T03:03:13.252Z,98.85
2023-05-14T03:05:43.200Z,98.38
2023-05-14T03:08:13.018Z,97.98
2023-05-14T03:10:43.072Z,99.16
2023-05-14T03:13:13.126Z,99.48
2023-05-14T03:15:43.185Z,99.38
2023-05-14T03:18:13.266Z,99.00
2023-05-14T03:20:43.898Z,99.31
2023-05-14T03:23:16.032Z,99.26
2023-05-14T03:25:46.092Z,99.47
2023-05-14T03:28:16.446Z,99.25
2023-05-14T03:30:46.762Z,99.32
2023-05-14T03:33:16.904Z,99.13
2023-05-14T03:35:47.001Z,99.27
2023-05-14T03:38:17.176Z,99.27
2023-05-14T03:40:49.902Z,99.37
2023-05-14T03:43:19.581Z,99.14
2023-05-14T03:45:53.636Z,98.89
2023-05-14T03:48:24.061Z,99.30
2023-05-14T03:50:55.273Z,99.61
2023-05-14T03:53:25.361Z,99.29
2023-05-14T03:55:55.612Z,99.77
2023-05-14T03:58:25.767Z,99.93
2023-05-14T04:00:56.281Z,99.83
2023-05-14T04:03:45.159Z,99.26
2023-05-14T04:06:16.073Z,99.79
2023-05-14T04:08:46.129Z,99.66
2023-05-14T04:11:16.299Z,99.59
2023-05-14T04:13:46.362Z,99.87
2023-05-14T04:16:16.533Z,99.79
2023-05-14T04:18:47.177Z,99.74
2023-05-14T04:21:18.034Z,99.74
2023-05-14T04:23:48.143Z,99.99
2023-05-14T04:26:18.384Z,99.86
2023-05-14T04:28:48.454Z,99.63
2023-05-14T04:31:18.553Z,99.99
2023-05-14T04:33:48.877Z,99.99
2023-05-14T04:36:18.959Z,99.99
2023-05-14T04:38:48.970Z,99.99
2023-05-14T04:41:18.974Z,99.99
2023-05-14T04:43:51.876Z,99.99
2023-05-14T04:46:22.143Z,99.99
2023-05-14T04:48:52.994Z,99.99
2023-05-14T04:51:23.407Z,99.99
2023-05-14T04:53:53.485Z,99.99
2023-05-14T04:56:23.588Z,99.99
2023-05-14T04:58:53.602Z,99.99
2023-05-14T05:01:24.621Z,99.99
2023-05-14T05:03:55.077Z,99.99
2023-05-14T05:06:25.279Z,99.99
2023-05-14T05:08:55.390Z,99.99
2023-05-14T05:11:25.545Z,99.99
2023-05-14T05:13:55.849Z,99.99
2023-05-14T05:16:26.095Z,99.99
2023-05-14T05:18:56.298Z,99.99
2023-05-14T05:21:27.287Z,99.99
2023-05-14T05:24:16.883Z,99.99
2023-05-14T05:26:47.007Z,99.99
2023-05-14T05:29:17.148Z,99.99
2023-05-14T05:31:47.389Z,99.99
2023-05-14T05:34:17.656Z,99.99
2023-05-14T05:36:47.820Z,99.99
2023-05-14T05:39:17.740Z,99.99
2023-05-14T05:41:47.620Z,99.99
2023-05-14T05:44:17.411Z,99.99
2023-05-14T05:46:47.373Z,99.99
2023-05-14T05:49:17.546Z,99.99
2023-05-14T05:51:48.105Z,99.99
2023-05-14T05:54:18.278Z,99.99
2023-05-14T05:56:48.503Z,99.99
2023-05-14T05:59:18.677Z,99.99
2023-05-14T06:01:49.308Z,99.99
2023-05-14T06:04:18.964Z,99.99
2023-05-14T06:06:49.158Z,99.99
2023-05-14T06:09:19.503Z,99.99
2023-05-14T06:11:49.746Z,99.99
2023-05-14T06:14:19.726Z,99.99
2023-05-14T06:16:49.820Z,99.99
2023-05-14T06:19:20.316Z,99.99
2023-05-14T06:21:50.506Z,99.99
2023-05-14T06:24:21.680Z,99.99
2023-05-14T06:26:51.894Z,99.99
2023-05-14T06:29:22.212Z,99.99
2023-05-14T06:31:52.391Z,99.99
2023-05-14T06:34:23.183Z,99.99
2023-05-14T06:36:53.298Z,99.99
2023-05-14T06:39:23.428Z,99.99
2023-05-14T06:41:53.484Z,99.99
2023-05-14T06:44:25.969Z,99.99
2023-05-14T06:46:56.100Z,99.99
2023-05-14T06:49:26.408Z,99.99
2023-05-14T06:51:56.509Z,99.99
2023-05-14T06:54:26.986Z,99.99
2023-05-14T06:56:57.135Z,99.99
2023-05-14T06:59:27.600Z,99.99
2023-05-14T07:01:57.795Z,99.99
2023-05-14T07:04:27.781Z,99.99
2023-05-14T07:06:57.910Z,99.99
2023-05-14T07:09:27.990Z,99.99
2023-05-14T07:11:58.018Z,99.99
2023-05-14T07:14:28.114Z,99.99
2023-05-14T07:16:59.419Z,99.99
2023-05-14T07:19:31.386Z,99.99
2023-05-14T07:22:02.307Z,99.99
2023-05-14T07:24:32.394Z,99.99
2023-05-14T07:27:03.042Z,99.99
2023-05-14T07:29:36.056Z,99.99
2023-05-14T07:32:06.577Z,99.99
2023-05-14T07:34:36.340Z,99.99
2023-05-14T07:37:06.470Z,99.99
2023-05-14T07:39:37.225Z,99.99
2023-05-14T07:42:07.450Z,99.99
2023-05-14T07:44:38.219Z,99.99
2023-05-14T07:47:09.822Z,99.99
2023-05-14T07:49:40.029Z,99.99
2023-05-14T07:52:10.061Z,99.99
2023-05-14T07:54:40.980Z,99.99
2023-05-14T07:57:30.182Z,99.99
2023-05-14T08:00:00.280Z,99.99
2023-05-14T08:02:30.710Z,99.99
2023-05-14T08:05:00.970Z,99.99
2023-05-14T08:07:50.355Z,99.99
2023-05-14T08:10:20.571Z,99.99
2023-05-14T08:12:50.626Z,99.99
2023-05-14T08:15:20.481Z,99.99
2023-05-14T08:17:50.627Z,99.99
2023-05-14T08:20:21.048Z,99.99
2023-05-14T08:22:51.156Z,99.99
2023-05-14T08:25:21.251Z,99.99
2023-05-14T08:27:51.526Z,99.99
2023-05-14T08:30:23.369Z,99.99
2023-05-14T08:32:54.169Z,99.99
2023-05-14T08:35:24.365Z,99.99
2023-05-14T08:37:54.490Z,99.99
2023-05-14T08:40:24.706Z,99.99
2023-05-14T08:42:55.680Z,99.99
2023-05-14T08:45:36.589Z,99.99
2023-05-14T08:48:10.021Z,99.99
2023-05-14T08:50:40.351Z,99.99
2023-05-14T08:53:10.386Z,99.99
2023-05-14T08:55:41.587Z,99.99
2023-05-14T08:58:12.006Z,99.99
2023-05-14T09:00:42.281Z,99.99
2023-05-14T09:03:12.819Z,99.99
2023-05-14T09:05:43.531Z,99.99
2023-05-14T09:08:14.253Z,99.99
2023-05-14T09:10:44.553Z,99.99
2023-05-14T09:13:15.048Z,99.99
2023-05-14T09:16:04.960Z,99.99
2023-05-14T09:18:38.022Z,99.99
2023-05-14T09:21:10.078Z,99.99
2023-05-14T09:23:48.977Z,99.99
2023-05-14T09:26:20.066Z,99.99
2023-05-14T09:28:50.298Z,99.99
2023-05-14T09:31:20.553Z,99.99
2023-05-14T09:33:54.044Z,99.99
2023-05-14T09:36:43.651Z,99.99
2023-05-14T09:39:13.777Z,99.99
2023-05-14T09:41:43.772Z,99.99
2023-05-14T09:44:13.631Z,99.99
2023-05-14T09:46:43.464Z,99.99
2023-05-14T09:49:13.515Z,99.99
2023-05-14T09:51:43.798Z,99.99
2023-05-14T09:54:14.184Z,99.99
2023-05-14T09:56:45.527Z,99.99
2023-05-14T09:59:16.066Z,99.99
2023-05-14T10:01:47.401Z,99.99
2023-05-14T10:04:17.597Z,99.99
2023-05-14T10:06:53.056Z,99.99
2023-05-14T10:09:27.341Z,99.99
2023-05-14T10:12:02.471Z,99.99
2023-05-14T10:14:47.472Z,99.99
2023-05-14T10:17:21.119Z,99.99
2023-05-14T10:19:57.583Z,99.99
2023-05-14T10:22:33.465Z,99.99
2023-05-14T10:25:05.093Z,99.99
2023-05-14T10:27:35.409Z,99.99
2023-05-14T10:30:12.949Z,99.99
2023-05-14T10:32:45.203Z,99.99
2023-05-14T10:35:26.436Z,99.99
2023-05-14T10:37:56.538Z,99.99
2023-05-14T10:40:27.109Z,99.99
2023-05-14T10:43:00.596Z,99.99
2023-05-14T10:45:31.679Z,99.99
2023-05-14T10:48:02.147Z,99.99
2023-05-14T10:50:32.325Z,99.99
2023-05-14T10:53:02.582Z,99.99
2023-05-14T10:55:34.184Z,99.99
2023-05-14T10:58:07.122Z,99.99
2023-05-14T11:00:37.517Z,99.99
2023-05-14T11:03:08.859Z,99.99
2023-05-14T11:05:40.818Z,99.99
2023-05-14T11:08:12.083Z,99.99
2023-05-14T11:10:43.517Z,99.99
2023-05-14T11:13:13.808Z,99.99
2023-05-14T11:15:49.229Z,99.99
2023-05-14T11:18:34.347Z,99.99
2023-05-14T11:21:05.147Z,99.99
2023-05-14T11:23:35.293Z,99.99
2023-05-14T11:26:05.620Z,99.99
2023-05-14T11:28:36.429Z,99.99
2023-05-14T11:31:26.819Z,99.99
2023-05-14T11:33:57.340Z,99.99
2023-05-14T11:36:27.390Z,99.99
2023-05-14T11:38:57.526Z,99.99
2023-05-14T11:41:29.224Z,99.99
2023-05-14T11:44:00.173Z,99.99
2023-05-14T11:46:31.937Z,99.99
2023-05-14T11:49:02.094Z,99.99
2023-05-14T11:51:33.083Z,99.99
2023-05-14T11:54:05.145Z,99.99
2023-05-14T11:56:35.193Z,99.99
2023-05-14T11:59:05.534Z,99.99
2023-05-14T12:01:41.522Z,99.99
2023-05-14T12:04:11.883Z,99.99
2023-05-14T12:06:42.826Z,99.99
2023-05-14T12:09:17.432Z,99.99
2023-05-14T12:11:48.793Z,99.81
2023-05-14T12:14:26.072Z,99.45
2023-05-14T12:16:56.062Z,99.49
2023-05-14T12:19:27.008Z,98.50
2023-05-14T12:21:57.214Z,98.03
2023-05-14T12:24:27.636Z,97.67
2023-05-14T12:26:58.592Z,97.52
2023-05-14T12:29:28.808Z,96.75
2023-05-14T12:32:00.485Z,97.43
2023-05-14T12:34:31.011Z,96.89
2023-05-14T12:37:01.067Z,96.24
2023-05-14T12:39:33.841Z,95.43
2023-05-14T12:42:04.112Z,95.62
2023-05-14T12:44:34.192Z,95.33
2023-05-14T12:50:17.598Z,95.04
2023-05-14T12:52:47.770Z,95.15
2023-05-14T12:55:17.625Z,95.05
2023-05-14T12:57:47.727Z,94.36
2023-05-14T13:00:18.420Z,94.39
2023-05-14T13:02:48.850Z,94.53
2023-05-14T13:05:19.059Z,94.02
2023-05-14T13:07:49.196Z,92.92
2023-05-14T13:10:19.685Z,92.70
2023-05-14T13:12:49.810Z,93.70
2023-05-14T13:15:19.902Z,93.57
2023-05-14T13:17:50.551Z,92.03
2023-05-14T13:20:20.736Z,92.17
2023-05-14T13:22:50.618Z,92.09
2023-05-14T13:25:20.483Z,91.97
2023-05-14T13:27:52.247Z,93.07
2023-05-14T13:30:22.800Z,92.04
2023-05-14T13:32:52.616Z,92.51
2023-05-14T13:35:22.887Z,90.44
2023-05-14T13:37:53.217Z,91.11
2023-05-14T13:40:24.307Z,90.68
2023-05-14T13:42:54.423Z,91.05
2023-05-14T13:45:24.767Z,91.05
2023-05-14T13:47:57.638Z,89.43
2023-05-14T13:50:27.637Z,89.51
2023-05-14T13:52:57.508Z,86.77
2023-05-14T13:55:27.567Z,86.84
2023-05-14T13:57:57.816Z,87.24
2023-05-14T14:00:28.849Z,87.23
2023-05-14T14:03:18.044Z,87.37
2023-05-14T14:05:48.228Z,86.97
2023-05-14T14:08:23.906Z,83.88
2023-05-14T14:10:56.362Z,84.85
2023-05-14T14:13:26.536Z,84.32
2023-05-14T14:15:56.870Z,82.66
2023-05-14T14:18:27.049Z,82.17
2023-05-14T14:20:57.344Z,81.23
2023-05-14T14:23:27.468Z,82.01
2023-05-14T14:25:57.620Z,76.42
2023-05-14T14:28:27.701Z,75.98
2023-05-14T14:30:57.565Z,76.41
2023-05-14T14:33:28.267Z,76.80
2023-05-14T14:35:58.387Z,76.83
2023-05-14T14:38:28.506Z,75.14
2023-05-14T14:40:59.539Z,74.93
2023-05-14T14:43:29.571Z,75.23
2023-05-14T14:45:59.435Z,74.23
2023-05-14T14:48:35.109Z,71.24
2023-05-14T14:51:06.552Z,73.66
2023-05-14T14:53:38.169Z,74.57
2023-05-14T14:56:08.516Z,73.23
2023-05-14T14:58:39.558Z,69.24
2023-05-14T15:01:09.845Z,69.37
2023-05-14T15:03:40.033Z,68.61
2023-05-14T15:06:10.260Z,68.37
2023-05-14T15:08:40.368Z,67.32
2023-05-14T15:11:10.856Z,68.60
2023-05-14T15:13:42.912Z,67.07
2023-05-14T15:16:13.847Z,67.93
2023-05-14T15:18:44.008Z,69.28
2023-05-14T15:21:14.116Z,69.49
2023-05-14T15:23:44.157Z,67.22
2023-05-14T15:26:14.286Z,68.13
2023-05-14T15:28:44.671Z,68.86
2023-05-14T15:31:14.278Z,69.03
2023-05-14T15:33:44.251Z,64.45
2023-05-14T15:36:13.856Z,67.25
2023-05-14T15:38:43.743Z,66.37
2023-05-14T15:41:13.538Z,66.34
2023-05-14T15:43:43.315Z,64.91
2023-05-14T15:46:13.630Z,63.60
2023-05-14T15:48:43.730Z,63.72
2023-05-14T15:51:13.756Z,66.55
2023-05-14T15:53:43.629Z,65.19
2023-05-14T15:56:14.368Z,65.72
2023-05-14T15:58:44.477Z,64.07
2023-05-14T16:01:14.622Z,65.33
2023-05-14T16:03:44.538Z,66.56
2023-05-14T16:06:14.319Z,64.57
2023-05-14T16:08:45.592Z,64.66
2023-05-14T16:11:15.607Z,63.91
2023-05-14T16:13:45.756Z,65.91
2023-05-14T16:16:15.675Z,65.37
2023-05-14T16:18:45.661Z,65.01
2023-05-14T16:21:15.495Z,64.26
2023-05-14T16:23:45.400Z,64.79
2023-05-14T16:26:14.995Z,66.59
2023-05-14T16:28:44.951Z,63.50
2023-05-14T16:31:16.497Z,63.82
2023-05-14T16:33:47.956Z,63.15
2023-05-14T16:36:18.252Z,63.95
2023-05-14T16:39:06.051Z,62.17
2023-05-14T16:41:37.552Z,60.61
2023-05-14T16:44:07.645Z,60.18
2023-05-14T16:46:37.948Z,61.39
2023-05-14T16:49:08.158Z,59.92
2023-05-14T16:51:43.432Z,58.51
2023-05-14T16:54:13.544Z,57.14
2023-05-14T16:56:43.690Z,57.00
2023-05-14T16:59:14.421Z,54.84
2023-05-14T17:01:45.743Z,53.98
2023-05-14T17:04:16.161Z,53.42
2023-05-14T17:06:48.631Z,52.96
2023-05-14T17:09:18.889Z,51.79
2023-05-14T17:11:48.961Z,52.59
2023-05-14T17:14:19.002Z,51.85
2023-05-14T17:16:48.750Z,55.04
2023-05-14T17:19:18.405Z,51.46
2023-05-14T17:21:47.993Z,53.78
2023-05-14T17:24:17.901Z,49.92
2023-05-14T17:26:47.965Z,50.75
2023-05-14T17:29:18.110Z,50.02
2023-05-14T17:31:49.459Z,50.58
2023-05-14T17:34:19.605Z,50.65
2023-05-14T17:36:49.660Z,49.30
2023-05-14T17:39:19.527Z,54.50
2023-05-14T17:41:49.648Z,58.87
2023-05-14T17:44:19.865Z,59.39
2023-05-14T17:46:50.792Z,60.73
2023-05-14T17:49:20.868Z,58.90
2023-05-14T17:51:50.390Z,54.94
2023-05-14T17:54:20.142Z,56.43
2023-05-14T17:56:52.006Z,61.81
2023-05-14T17:59:24.117Z,63.45
2023-05-14T18:01:54.382Z,61.90
2023-05-14T18:04:24.105Z,63.86
2023-05-14T18:06:54.142Z,63.37
2023-05-14T18:09:23.760Z,65.06
2023-05-14T18:11:54.725Z,62.44
2023-05-14T18:14:27.071Z,63.23
2023-05-14T18:16:57.396Z,64.79
2023-05-14T18:19:27.468Z,63.85
2023-05-14T18:21:57.058Z,64.65
2023-05-14T18:24:27.373Z,64.31
2023-05-14T18:26:57.445Z,65.82
2023-05-14T18:29:27.627Z,64.52
2023-05-14T18:31:57.186Z,67.82
2023-05-14T18:34:26.885Z,66.13
2023-05-14T18:36:57.483Z,64.31
2023-05-14T18:39:27.729Z,65.49
2023-05-14T18:41:57.870Z,65.58
2023-05-14T18:44:27.869Z,64.28
2023-05-14T18:46:58.120Z,64.62
2023-05-14T18:49:28.785Z,64.78
2023-05-14T18:51:58.581Z,64.98
2023-05-14T18:54:28.369Z,66.40
2023-05-14T18:56:58.621Z,66.42
2023-05-14T18:59:28.208Z,66.83
2023-05-14T19:01:58.018Z,66.55
2023-05-14T19:04:28.561Z,68.71
2023-05-14T19:06:59.683Z,66.14
2023-05-14T19:09:29.509Z,67.21
2023-05-14T19:11:59.683Z,66.51
2023-05-14T19:14:30.137Z,67.58
2023-05-14T19:17:00.252Z,66.74
2023-05-14T19:19:30.453Z,67.26
2023-05-14T19:22:03.811Z,67.49
2023-05-14T19:24:34.828Z,68.37
2023-05-14T19:27:05.203Z,67.51
2023-05-14T19:29:35.427Z,67.64
2023-05-14T19:32:05.894Z,66.86
2023-05-14T19:34:35.895Z,65.36
2023-05-14T19:37:06.497Z,67.42
2023-05-14T19:39:36.658Z,65.91
2023-05-14T19:42:06.833Z,66.03
2023-05-14T19:44:36.938Z,66.62
2023-05-14T19:47:07.429Z,67.31
2023-05-14T19:49:37.824Z,67.06
2023-05-14T19:52:08.032Z,68.79
2023-05-14T19:54:38.096Z,67.97
2023-05-14T19:57:08.170Z,68.42
2023-05-14T19:59:39.540Z,70.04
2023-05-14T20:02:10.242Z,69.86
2023-05-14T20:04:41.127Z,70.18
2023-05-14T20:07:11.311Z,70.91
2023-05-14T20:09:41.489Z,71.43
2023-05-14T20:12:12.031Z,71.65
2023-05-14T20:14:42.821Z,72.31
2023-05-14T20:17:12.789Z,72.98
2023-05-14T20:19:42.853Z,73.15
2023-05-14T20:22:12.582Z,72.98
2023-05-14T20:24:42.514Z,73.76
2023-05-14T20:27:13.103Z,74.29
2023-05-14T20:29:43.225Z,74.11
2023-05-14T20:32:13.691Z,74.82
2023-05-14T20:34:43.072Z,75.79
2023-05-14T20:37:13.100Z,74.82
2023-05-14T20:39:42.700Z,75.90
2023-05-14T20:42:12.428Z,75.11
2023-05-14T20:44:42.458Z,76.00
2023-05-14T20:47:13.928Z,76.55
2023-05-14T20:49:44.015Z,77.22
2023-05-14T20:52:15.055Z,77.25
2023-05-14T20:54:45.153Z,77.47
2023-05-14T20:57:17.139Z,77.34
2023-05-14T20:59:50.313Z,78.73
2023-05-14T21:02:21.479Z,78.60
2023-05-14T21:04:51.859Z,79.41
2023-05-14T21:07:22.127Z,80.46
2023-05-14T21:09:53.541Z,79.92
2023-05-14T21:12:23.847Z,80.49
2023-05-14T21:14:53.655Z,81.00
2023-05-14T21:17:23.741Z,81.03
2023-05-14T21:19:54.078Z,81.23
2023-05-14T21:22:24.408Z,81.93
2023-05-14T21:24:54.052Z,82.23
2023-05-14T21:27:24.428Z,82.64
2023-05-14T21:29:54.513Z,84.44
2023-05-14T21:32:25.128Z,83.99
2023-05-14T21:34:55.209Z,84.18
2023-05-14T21:37:25.322Z,84.55
2023-05-14T21:39:55.406Z,84.80
2023-05-14T21:42:25.518Z,84.56
2023-05-14T21:44:55.526Z,85.14
2023-05-14T21:47:25.736Z,84.95
2023-05-14T21:49:55.812Z,84.91
2023-05-14T21:52:25.661Z,84.82
2023-05-14T21:54:55.523Z,84.68
2023-05-14T21:57:27.389Z,86.05
2023-05-14T21:59:59.282Z,85.87
2023-05-14T22:02:29.395Z,84.48
2023-05-14T22:04:59.584Z,85.02
2023-05-14T22:07:29.842Z,85.21
2023-05-14T22:09:59.977Z,84.86
2023-05-14T22:12:29.861Z,85.28
2023-05-14T22:14:59.980Z,84.74
2023-05-14T22:17:30.382Z,85.19
2023-05-14T22:19:59.922Z,85.39
2023-05-14T22:22:29.869Z,87.05
2023-05-14T22:24:59.968Z,87.50
2023-05-14T22:27:30.453Z,87.68
2023-05-14T22:30:01.434Z,87.94
2023-05-14T22:32:32.661Z,87.61
2023-05-14T22:35:03.665Z,88.09
2023-05-14T22:37:33.986Z,87.80
2023-05-14T22:40:06.350Z,88.03
2023-05-14T22:42:36.455Z,87.14
2023-05-14T22:45:07.153Z,88.04
2023-05-14T22:47:37.206Z,87.50
2023-05-14T22:50:12.533Z,88.78
2023-05-14T22:52:42.890Z,89.90
2023-05-14T22:55:12.741Z,89.33
2023-05-14T22:57:42.454Z,88.78
2023-05-14T23:00:12.911Z,89.54
2023-05-14T23:02:43.199Z,89.74
2023-05-14T23:05:13.440Z,90.21
2023-05-14T23:07:43.541Z,90.36
2023-05-14T23:10:13.654Z,89.76
2023-05-14T23:12:43.453Z,89.44
2023-05-14T23:15:13.683Z,89.14
2023-05-14T23:17:44.021Z,90.44
2023-05-14T23:20:14.590Z,90.93
2023-05-14T23:22:44.654Z,91.17
2023-05-14T23:25:14.622Z,90.06
2023-05-14T23:27:44.727Z,90.02
2023-05-14T23:30:14.967Z,89.73
2023-05-14T23:32:44.599Z,89.41
2023-05-14T23:35:14.527Z,90.60
2023-05-14T23:37:48.186Z,91.26
2023-05-14T23:40:21.308Z,91.41
2023-05-14T23:42:51.782Z,91.58
2023-05-14T23:45:21.347Z,90.67
2023-05-14T23:47:51.281Z,90.59
2023-05-14T23:50:21.790Z,91.61
2023-05-14T23:52:54.454Z,92.14
2023-05-14T23:55:24.814Z,91.64
2023-05-14T23:57:55.051Z,91.18
